MAS7321 WMKC-WMKK
Flight info
| Callsign | MAS7321 |
|---|---|
| Flight time | 0h 47m |
| Altitude | 28000 |
| Route | RUPOS1A RUPOS G466 PULIP PULIP1H |
| Aircraft | B738/M-SDE2E3FGHIRWXY/LB1 |
Departure
| Time | 2026-05-04 13:55 |
|---|---|
| Airport | Sultan Ismail Petra Airport (WMKC) |
Arrival
| Time | 2026-05-04 14:43 |
|---|---|
| Airport | Kuala Lumpur International Airport (WMKK) |
| Time | Latitude | Longitude | Altitude | Speed | Heading |
|---|---|---|---|---|---|
| 2026-05-04 13:30 | 6.16982 | 102.29034 | 21 ft | 0 kts | 9° |
| 2026-05-04 13:48 | 6.16980 | 102.29034 | 21 ft | 2 kts | 9° |
| 2026-05-04 13:48 | 6.16957 | 102.29035 | 23 ft | 4 kts | 327° |
| 2026-05-04 13:49 | 6.16940 | 102.29054 | 25 ft | 4 kts | 292° |
| 2026-05-04 13:49 | 6.16935 | 102.29069 | 21 ft | 0 kts | 279° |
| 2026-05-04 13:51 | 6.16936 | 102.29065 | 21 ft | 2 kts | 279° |
| 2026-05-04 13:52 | 6.16952 | 102.28971 | 21 ft | 11 kts | 279° |
| 2026-05-04 13:52 | 6.16966 | 102.28888 | 21 ft | 10 kts | 274° |
| 2026-05-04 13:52 | 6.16933 | 102.28832 | 21 ft | 10 kts | 238° |
| 2026-05-04 13:53 | 6.16931 | 102.28766 | 21 ft | 9 kts | 278° |
| 2026-05-04 13:53 | 6.16936 | 102.28702 | 21 ft | 9 kts | 264° |
| 2026-05-04 13:53 | 6.16928 | 102.28639 | 21 ft | 9 kts | 260° |
| 2026-05-04 13:54 | 6.16896 | 102.28523 | 21 ft | 8 kts | 229° |
| 2026-05-04 13:54 | 6.16843 | 102.28503 | 21 ft | 8 kts | 185° |
| 2026-05-04 13:54 | 6.16796 | 102.28640 | 21 ft | 34 kts | 99° |
| 2026-05-04 13:55 | 6.16713 | 102.29135 | 22 ft | 107 kts | 99° |
| 2026-05-04 13:55 | 6.16347 | 102.31288 | 447 ft | 182 kts | 101° |
| 2026-05-04 13:55 | 6.16087 | 102.32589 | 1061 ft | 194 kts | 101° |
| 2026-05-04 13:56 | 6.15928 | 102.33478 | 1572 ft | 196 kts | 99° |
| 2026-05-04 13:56 | 6.15707 | 102.34846 | 2292 ft | 200 kts | 99° |
| 2026-05-04 13:56 | 6.14664 | 102.37435 | 3347 ft | 227 kts | 145° |
| 2026-05-04 13:57 | 6.13077 | 102.37913 | 3590 ft | 258 kts | 181° |
| 2026-05-04 13:57 | 6.11265 | 102.37600 | 4182 ft | 271 kts | 194° |
| 2026-05-04 13:58 | 6.05719 | 102.35898 | 6537 ft | 285 kts | 195° |
| 2026-05-04 13:58 | 6.01882 | 102.34734 | 8034 ft | 292 kts | 194° |
| 2026-05-04 13:58 | 5.99916 | 102.34153 | 8767 ft | 297 kts | 194° |
| 2026-05-04 13:59 | 5.97919 | 102.33569 | 9530 ft | 301 kts | 194° |
| 2026-05-04 13:59 | 5.95891 | 102.32981 | 10237 ft | 305 kts | 194° |
| 2026-05-04 13:59 | 5.91570 | 102.31740 | 10982 ft | 337 kts | 194° |
| 2026-05-04 14:00 | 5.89297 | 102.31087 | 11664 ft | 340 kts | 194° |
| 2026-05-04 14:00 | 5.84721 | 102.29774 | 13177 ft | 344 kts | 194° |
| 2026-05-04 14:00 | 5.82404 | 102.29110 | 13887 ft | 348 kts | 194° |
| 2026-05-04 14:01 | 5.80100 | 102.28451 | 14520 ft | 351 kts | 194° |
| 2026-05-04 14:01 | 5.77738 | 102.27775 | 15168 ft | 355 kts | 194° |
| 2026-05-04 14:01 | 5.72939 | 102.26403 | 16454 ft | 363 kts | 194° |
| 2026-05-04 14:02 | 5.70498 | 102.25705 | 17085 ft | 366 kts | 194° |
| 2026-05-04 14:02 | 5.68035 | 102.25001 | 17727 ft | 370 kts | 194° |
| 2026-05-04 14:02 | 5.65544 | 102.24288 | 18328 ft | 374 kts | 194° |
| 2026-05-04 14:02 | 5.63033 | 102.23569 | 18874 ft | 377 kts | 194° |
| 2026-05-04 14:03 | 5.60499 | 102.22845 | 19441 ft | 379 kts | 194° |
| 2026-05-04 14:03 | 5.57956 | 102.22118 | 19990 ft | 382 kts | 194° |
| 2026-05-04 14:03 | 5.55386 | 102.21383 | 20528 ft | 385 kts | 194° |
| 2026-05-04 14:03 | 5.52792 | 102.20702 | 21052 ft | 387 kts | 190° |
| 2026-05-04 14:04 | 5.47445 | 102.19756 | 22090 ft | 393 kts | 188° |
| 2026-05-04 14:04 | 5.44737 | 102.19327 | 22592 ft | 396 kts | 188° |
| 2026-05-04 14:04 | 5.42010 | 102.18896 | 23092 ft | 399 kts | 188° |
| 2026-05-04 14:05 | 5.36487 | 102.18002 | 23963 ft | 405 kts | 188° |
| 2026-05-04 14:05 | 5.33698 | 102.17540 | 24363 ft | 407 kts | 188° |
| 2026-05-04 14:05 | 5.30909 | 102.17076 | 24761 ft | 410 kts | 188° |
| 2026-05-04 14:06 | 5.28075 | 102.16603 | 25148 ft | 413 kts | 188° |
| 2026-05-04 14:06 | 5.25233 | 102.16128 | 25536 ft | 415 kts | 188° |
| 2026-05-04 14:06 | 5.22373 | 102.15649 | 25922 ft | 418 kts | 188° |
| 2026-05-04 14:06 | 5.19502 | 102.15167 | 26297 ft | 421 kts | 188° |
| 2026-05-04 14:07 | 5.16600 | 102.14680 | 26672 ft | 423 kts | 188° |
| 2026-05-04 14:07 | 5.13693 | 102.14192 | 27042 ft | 426 kts | 188° |
| 2026-05-04 14:07 | 5.10761 | 102.13701 | 27405 ft | 428 kts | 188° |
| 2026-05-04 14:07 | 5.07813 | 102.13206 | 27768 ft | 431 kts | 188° |
| 2026-05-04 14:08 | 5.04836 | 102.12708 | 27893 ft | 437 kts | 188° |
| 2026-05-04 14:08 | 5.01832 | 102.12204 | 27893 ft | 437 kts | 188° |
| 2026-05-04 14:08 | 4.98846 | 102.11704 | 27895 ft | 433 kts | 188° |
| 2026-05-04 14:08 | 4.95883 | 102.11206 | 27890 ft | 430 kts | 188° |
| 2026-05-04 14:09 | 4.89959 | 102.10214 | 27898 ft | 433 kts | 188° |
| 2026-05-04 14:09 | 4.86984 | 102.09716 | 27912 ft | 434 kts | 188° |
| 2026-05-04 14:10 | 4.81012 | 102.08715 | 27906 ft | 435 kts | 188° |
| 2026-05-04 14:10 | 4.78021 | 102.08215 | 27901 ft | 435 kts | 188° |
| 2026-05-04 14:10 | 4.75036 | 102.07715 | 27901 ft | 435 kts | 188° |
| 2026-05-04 14:10 | 4.72054 | 102.07216 | 27901 ft | 435 kts | 188° |
| 2026-05-04 14:11 | 4.69073 | 102.06716 | 27887 ft | 434 kts | 188° |
| 2026-05-04 14:11 | 4.63120 | 102.05719 | 27893 ft | 433 kts | 188° |
| 2026-05-04 14:11 | 4.60153 | 102.05222 | 27889 ft | 432 kts | 188° |
| 2026-05-04 14:12 | 4.57191 | 102.04727 | 27884 ft | 431 kts | 188° |
| 2026-05-04 14:12 | 4.54230 | 102.04232 | 27888 ft | 431 kts | 188° |
| 2026-05-04 14:12 | 4.48319 | 102.03242 | 27886 ft | 430 kts | 188° |
| 2026-05-04 14:13 | 4.45368 | 102.02749 | 27884 ft | 430 kts | 188° |
| 2026-05-04 14:13 | 4.42415 | 102.02255 | 27894 ft | 430 kts | 188° |
| 2026-05-04 14:13 | 4.39462 | 102.01761 | 27892 ft | 430 kts | 188° |
| 2026-05-04 14:13 | 4.36511 | 102.01268 | 27888 ft | 431 kts | 188° |
| 2026-05-04 14:14 | 4.33553 | 102.00773 | 27889 ft | 431 kts | 188° |
| 2026-05-04 14:14 | 4.27637 | 101.99783 | 27892 ft | 431 kts | 188° |
| 2026-05-04 14:14 | 4.24684 | 101.99290 | 27894 ft | 430 kts | 188° |
| 2026-05-04 14:15 | 4.18822 | 101.98309 | 27895 ft | 429 kts | 188° |
| 2026-05-04 14:15 | 4.12899 | 101.97319 | 27898 ft | 428 kts | 188° |
| 2026-05-04 14:16 | 4.07057 | 101.96343 | 27906 ft | 428 kts | 188° |
| 2026-05-04 14:16 | 4.04119 | 101.95852 | 27900 ft | 428 kts | 188° |
| 2026-05-04 14:17 | 3.98244 | 101.94870 | 27907 ft | 428 kts | 188° |
| 2026-05-04 14:17 | 3.95311 | 101.94380 | 27907 ft | 428 kts | 188° |
| 2026-05-04 14:17 | 3.89437 | 101.93398 | 27909 ft | 427 kts | 188° |
| 2026-05-04 14:18 | 3.86537 | 101.92913 | 27733 ft | 418 kts | 188° |
| 2026-05-04 14:18 | 3.80823 | 101.91959 | 26654 ft | 417 kts | 188° |
| 2026-05-04 14:19 | 3.75104 | 101.91004 | 25625 ft | 414 kts | 188° |
| 2026-05-04 14:19 | 3.72275 | 101.90531 | 25210 ft | 410 kts | 188° |
| 2026-05-04 14:19 | 3.69468 | 101.90062 | 24792 ft | 407 kts | 188° |
| 2026-05-04 14:19 | 3.66693 | 101.89566 | 24346 ft | 405 kts | 191° |
| 2026-05-04 14:20 | 3.63983 | 101.88804 | 23901 ft | 404 kts | 196° |
| 2026-05-04 14:20 | 3.61330 | 101.87887 | 23480 ft | 402 kts | 198° |
| 2026-05-04 14:20 | 3.58706 | 101.86934 | 23021 ft | 399 kts | 198° |
| 2026-05-04 14:21 | 3.53593 | 101.85112 | 22503 ft | 382 kts | 197° |
| 2026-05-04 14:21 | 3.51104 | 101.84254 | 22253 ft | 375 kts | 197° |
| 2026-05-04 14:21 | 3.48655 | 101.83422 | 22045 ft | 367 kts | 197° |
| 2026-05-04 14:21 | 3.46281 | 101.82619 | 21960 ft | 356 kts | 197° |
| 2026-05-04 14:22 | 3.43936 | 101.81831 | 21695 ft | 354 kts | 197° |
| 2026-05-04 14:22 | 3.41609 | 101.81049 | 21448 ft | 351 kts | 197° |
| 2026-05-04 14:22 | 3.39286 | 101.80276 | 21216 ft | 352 kts | 194° |
| 2026-05-04 14:22 | 3.36876 | 101.80099 | 20933 ft | 349 kts | 167° |
| 2026-05-04 14:23 | 3.32650 | 101.82320 | 20515 ft | 345 kts | 142° |
| 2026-05-04 14:23 | 3.30722 | 101.83746 | 20274 ft | 343 kts | 142° |
| 2026-05-04 14:23 | 3.28818 | 101.85171 | 20035 ft | 341 kts | 142° |
| 2026-05-04 14:24 | 3.26923 | 101.86584 | 19804 ft | 339 kts | 142° |
| 2026-05-04 14:24 | 3.25026 | 101.87989 | 19581 ft | 338 kts | 142° |
| 2026-05-04 14:24 | 3.23136 | 101.89379 | 19347 ft | 337 kts | 142° |
| 2026-05-04 14:24 | 3.21250 | 101.90761 | 19115 ft | 336 kts | 142° |
| 2026-05-04 14:25 | 3.19367 | 101.92138 | 18891 ft | 334 kts | 142° |
| 2026-05-04 14:25 | 3.15620 | 101.94871 | 18448 ft | 333 kts | 142° |
| 2026-05-04 14:25 | 3.13753 | 101.96231 | 18215 ft | 332 kts | 142° |
| 2026-05-04 14:26 | 3.11885 | 101.97592 | 17972 ft | 331 kts | 142° |
| 2026-05-04 14:26 | 3.10051 | 101.98929 | 17720 ft | 330 kts | 142° |
| 2026-05-04 14:26 | 3.08196 | 102.00281 | 17457 ft | 330 kts | 142° |
| 2026-05-04 14:26 | 3.06346 | 102.01628 | 17215 ft | 328 kts | 142° |
| 2026-05-04 14:27 | 3.04516 | 102.02961 | 16956 ft | 323 kts | 142° |
| 2026-05-04 14:27 | 3.02712 | 102.04275 | 16688 ft | 318 kts | 142° |
| 2026-05-04 14:27 | 3.00934 | 102.05570 | 16409 ft | 313 kts | 142° |
| 2026-05-04 14:27 | 2.99195 | 102.06835 | 16103 ft | 306 kts | 142° |
| 2026-05-04 14:28 | 2.97495 | 102.08074 | 15798 ft | 300 kts | 142° |
| 2026-05-04 14:28 | 2.95713 | 102.09114 | 15414 ft | 299 kts | 161° |
| 2026-05-04 14:28 | 2.93600 | 102.09278 | 14418 ft | 320 kts | 189° |
| 2026-05-04 14:28 | 2.91445 | 102.08470 | 13217 ft | 343 kts | 207° |
| 2026-05-04 14:29 | 2.87207 | 102.05865 | 10821 ft | 370 kts | 213° |
| 2026-05-04 14:29 | 2.82925 | 102.03089 | 9685 ft | 350 kts | 212° |
| 2026-05-04 14:30 | 2.80918 | 102.01814 | 9329 ft | 333 kts | 212° |
| 2026-05-04 14:30 | 2.79003 | 102.00610 | 8970 ft | 319 kts | 212° |
| 2026-05-04 14:30 | 2.75370 | 101.98343 | 8205 ft | 298 kts | 212° |
| 2026-05-04 14:31 | 2.73632 | 101.97262 | 7817 ft | 290 kts | 212° |
| 2026-05-04 14:31 | 2.70273 | 101.95174 | 7037 ft | 279 kts | 212° |
| 2026-05-04 14:32 | 2.67025 | 101.93157 | 6253 ft | 271 kts | 212° |
| 2026-05-04 14:32 | 2.65439 | 101.92171 | 5829 ft | 267 kts | 212° |
| 2026-05-04 14:32 | 2.63810 | 101.91300 | 5413 ft | 265 kts | 197° |
| 2026-05-04 14:32 | 2.62009 | 101.91201 | 5029 ft | 258 kts | 168° |
| 2026-05-04 14:33 | 2.60382 | 101.91864 | 4689 ft | 250 kts | 149° |
| 2026-05-04 14:33 | 2.58946 | 101.92808 | 4561 ft | 245 kts | 146° |
| 2026-05-04 14:33 | 2.57521 | 101.93793 | 4525 ft | 253 kts | 146° |
| 2026-05-04 14:33 | 2.56056 | 101.94797 | 4508 ft | 256 kts | 146° |
| 2026-05-04 14:34 | 2.54474 | 101.95567 | 4489 ft | 254 kts | 169° |
| 2026-05-04 14:34 | 2.52737 | 101.95456 | 4507 ft | 253 kts | 200° |
| 2026-05-04 14:34 | 2.51281 | 101.94503 | 4512 ft | 251 kts | 227° |
| 2026-05-04 14:34 | 2.50238 | 101.93167 | 4495 ft | 235 kts | 236° |
| 2026-05-04 14:35 | 2.49468 | 101.91823 | 4473 ft | 212 kts | 256° |
| 2026-05-04 14:35 | 2.49599 | 101.90479 | 4477 ft | 188 kts | 302° |
| 2026-05-04 14:35 | 2.50444 | 101.89551 | 4512 ft | 179 kts | 315° |
| 2026-05-04 14:35 | 2.51330 | 101.88679 | 4496 ft | 178 kts | 317° |
| 2026-05-04 14:36 | 2.52232 | 101.87846 | 4503 ft | 175 kts | 317° |
| 2026-05-04 14:36 | 2.53137 | 101.87054 | 4508 ft | 176 kts | 320° |
| 2026-05-04 14:36 | 2.54121 | 101.86287 | 4504 ft | 177 kts | 323° |
| 2026-05-04 14:36 | 2.55108 | 101.85576 | 4452 ft | 180 kts | 324° |
| 2026-05-04 14:37 | 2.56135 | 101.84864 | 4243 ft | 181 kts | 325° |
| 2026-05-04 14:37 | 2.57168 | 101.84159 | 4008 ft | 178 kts | 325° |
| 2026-05-04 14:37 | 2.58181 | 101.83472 | 3783 ft | 174 kts | 325° |
| 2026-05-04 14:37 | 2.59173 | 101.82802 | 3567 ft | 172 kts | 325° |
| 2026-05-04 14:38 | 2.60167 | 101.82130 | 3355 ft | 173 kts | 325° |
| 2026-05-04 14:38 | 2.61164 | 101.81457 | 3134 ft | 172 kts | 325° |
| 2026-05-04 14:38 | 2.62144 | 101.80795 | 2910 ft | 170 kts | 325° |
| 2026-05-04 14:38 | 2.63111 | 101.80142 | 2696 ft | 164 kts | 325° |
| 2026-05-04 14:39 | 2.64038 | 101.79516 | 2495 ft | 157 kts | 325° |
| 2026-05-04 14:39 | 2.64916 | 101.78923 | 2301 ft | 150 kts | 325° |
| 2026-05-04 14:39 | 2.65758 | 101.78354 | 2111 ft | 143 kts | 325° |
| 2026-05-04 14:40 | 2.67374 | 101.77262 | 1767 ft | 141 kts | 326° |
| 2026-05-04 14:40 | 2.68187 | 101.76713 | 1578 ft | 141 kts | 326° |
| 2026-05-04 14:40 | 2.68999 | 101.76164 | 1393 ft | 140 kts | 326° |
| 2026-05-04 14:40 | 2.69806 | 101.75620 | 1213 ft | 140 kts | 326° |
| 2026-05-04 14:41 | 2.70610 | 101.75077 | 1037 ft | 139 kts | 326° |
| 2026-05-04 14:41 | 2.71415 | 101.74529 | 882 ft | 140 kts | 325° |
| 2026-05-04 14:41 | 2.73040 | 101.73435 | 558 ft | 142 kts | 327° |
| 2026-05-04 14:42 | 2.74400 | 101.72505 | 267 ft | 143 kts | 324° |
| 2026-05-04 14:42 | 2.75443 | 101.71800 | 72 ft | 121 kts | 326° |
| 2026-05-04 14:42 | 2.76052 | 101.71392 | 64 ft | 88 kts | 326° |
| 2026-05-04 14:43 | 2.76411 | 101.71147 | 60 ft | 27 kts | 319° |
| 2026-05-04 14:43 | 2.76487 | 101.71074 | 67 ft | 22 kts | 313° |
| 2026-05-04 14:43 | 2.76555 | 101.70968 | 59 ft | 10 kts | 296° |
| 2026-05-04 14:43 | 2.76584 | 101.70905 | 65 ft | 10 kts | 283° |
| 2026-05-04 14:44 | 2.76572 | 101.70862 | 62 ft | 10 kts | 232° |
| 2026-05-04 14:44 | 2.76509 | 101.70858 | 61 ft | 10 kts | 155° |
| 2026-05-04 14:44 | 2.76453 | 101.70894 | 62 ft | 10 kts | 146° |
| 2026-05-04 14:44 | 2.76398 | 101.70930 | 64 ft | 9 kts | 146° |
| 2026-05-04 14:45 | 2.76346 | 101.70965 | 57 ft | 9 kts | 146° |
| 2026-05-04 14:45 | 2.76294 | 101.70999 | 58 ft | 9 kts | 148° |
| 2026-05-04 14:45 | 2.76238 | 101.71022 | 63 ft | 9 kts | 159° |
| 2026-05-04 14:45 | 2.76201 | 101.71031 | 62 ft | 8 kts | 167° |
| 2026-05-04 14:46 | 2.76197 | 101.71032 | 63 ft | 8 kts | 167° |
| 2026-05-04 14:46 | 2.76184 | 101.71035 | 67 ft | 8 kts | 167° |
| 2026-05-04 14:46 | 2.76129 | 101.71047 | 68 ft | 8 kts | 167° |
| 2026-05-04 14:46 | 2.76075 | 101.71059 | 65 ft | 8 kts | 167° |
| 2026-05-04 14:47 | 2.76023 | 101.71072 | 62 ft | 8 kts | 159° |
| 2026-05-04 14:47 | 2.75979 | 101.71097 | 69 ft | 7 kts | 150° |
| 2026-05-04 14:47 | 2.75938 | 101.71123 | 66 ft | 7 kts | 144° |
| 2026-05-04 14:47 | 2.75897 | 101.71152 | 70 ft | 7 kts | 144° |
| 2026-05-04 14:48 | 2.75854 | 101.71152 | 64 ft | 7 kts | 210° |
| 2026-05-04 14:48 | 2.75822 | 101.71117 | 68 ft | 7 kts | 235° |
| 2026-05-04 14:48 | 2.75796 | 101.71079 | 72 ft | 7 kts | 235° |
| 2026-05-04 14:48 | 2.75770 | 101.71041 | 66 ft | 6 kts | 236° |
| 2026-05-04 14:49 | 2.75746 | 101.71004 | 69 ft | 6 kts | 236° |
| 2026-05-04 14:49 | 2.75722 | 101.70968 | 63 ft | 6 kts | 236° |
| 2026-05-04 14:49 | 2.75698 | 101.70932 | 67 ft | 6 kts | 236° |
| 2026-05-04 14:49 | 2.75675 | 101.70897 | 66 ft | 6 kts | 236° |
| 2026-05-04 14:50 | 2.75652 | 101.70863 | 64 ft | 6 kts | 236° |
| 2026-05-04 14:50 | 2.75630 | 101.70829 | 72 ft | 6 kts | 234° |
| 2026-05-04 14:50 | 2.75597 | 101.70807 | 66 ft | 6 kts | 199° |
| 2026-05-04 14:50 | 2.75559 | 101.70802 | 66 ft | 6 kts | 167° |
| 2026-05-04 14:51 | 2.75541 | 101.70813 | 66 ft | 1 kts | 146° |
| 2026-05-04 14:51 | 2.75536 | 101.70816 | 68 ft | 1 kts | 146° |
| 2026-05-04 14:51 | 2.75531 | 101.70819 | 64 ft | 1 kts | 146° |
| 2026-05-04 14:51 | 2.75527 | 101.70822 | 66 ft | 1 kts | 146° |
| 2026-05-04 14:52 | 2.75526 | 101.70823 | 66 ft | 0 kts | 146° |